Itambacuri, Brazil
Current Conditions -  °F | °C
As of 11:00 AM on Friday 28 Nov 2014 (Local Time) from SBIP Reporting Station
Overcast Overcast  
Wind Chill: 79°   Ceiling: 5000
Heat Index: 81°   Visibility: 6mi
Dew Point: 68°   Wind: 2mph
Humidity: 69%   Direction: 30°NNE
Pressure: 29.94"   Gusts: NA
Location:  18.03°S, 41.68°W
Report Text: SBIP 281300Z 03002KT 9999 FEW010 BKN050 OVC090 26/20 Q1014
Loading
Personal Weather Stations






























Interactive Weather Map New forecast layout! Learn more

10-Day Weather Forecast

Advertisements
Track Severe Weather on mobile